Time,TemperatureF,DewpointF,PressureIn,WindDirection,WindDirectionDegrees,WindSpeedMPH,WindSpeedGustMPH,Humidity,HourlyPrecipIn,Conditions,Clouds,dailyrainin,SolarRadiationWatts/m^2,SoftwareType,DateUTC
2013-03-26 14:10:00,37.4,34.2,30.17,NW,315,6.0,10.0,88,0.00,,---,0.00,280.00,VWS V14.00,2013-03-26 18:10:00,
2013-03-26 14:25:00,37.3,33.5,30.17,NNW,333,7.0,11.0,86,0.00,,---,0.00,376.00,VWS V14.00,2013-03-26 18:25:00,
2013-03-26 14:28:00,37.4,33.6,30.17,WNW,298,8.0,11.0,86,0.00,,---,0.00,497.00,VWS V14.00,2013-03-26 18:28:00,
2013-03-26 14:33:00,38.1,34.3,30.16,NW,317,5.0,9.0,86,0.00,,---,0.00,269.00,VWS V14.00,2013-03-26 18:33:00,
2013-03-26 14:38:00,38.6,34.5,30.16,WNW,302,9.0,11.0,85,0.00,,---,0.00,392.00,VWS V14.00,2013-03-26 18:38:00,
2013-03-26 14:43:00,38.8,34.1,30.16,NW,315,9.0,10.0,83,0.00,,---,0.00,1164.00,VWS V14.00,2013-03-26 18:43:00,
2013-03-26 14:48:00,39.1,33.8,30.16,NW,319,9.0,12.0,81,0.00,,---,0.00,163.00,VWS V14.00,2013-03-26 18:48:00,
2013-03-26 14:53:00,38.7,33.1,30.16,NW,307,7.0,12.0,80,0.00,,---,0.00,246.00,VWS V14.00,2013-03-26 18:53:00,
2013-03-26 14:58:00,38.8,33.2,30.16,NNW,340,2.0,10.0,80,0.00,,---,0.00,236.00,VWS V14.00,2013-03-26 18:58:00,
2013-03-26 15:03:00,39.1,33.2,30.16,WNW,294,7.0,9.0,79,0.00,,---,0.00,221.00,VWS V14.00,2013-03-26 19:03:00,
2013-03-26 15:08:00,39.3,32.7,30.16,NW,316,14.0,15.0,77,0.00,,---,0.00,279.00,VWS V14.00,2013-03-26 19:08:00,
2013-03-26 15:13:00,39.2,32.6,30.16,NW,326,6.0,18.0,77,0.00,,---,0.00,229.00,VWS V14.00,2013-03-26 19:13:00,
2013-03-26 15:18:00,39.3,32.0,30.16,NW,312,6.0,15.0,75,0.00,,---,0.00,174.00,VWS V14.00,2013-03-26 19:18:00,
2013-03-26 15:23:00,39.3,32.4,30.16,NW,324,6.0,9.0,76,0.00,,---,0.00,207.00,VWS V14.00,2013-03-26 19:23:00,
2013-03-26 15:28:00,39.2,32.0,30.16,NW,319,10.0,15.0,75,0.00,,---,0.00,316.00,VWS V14.00,2013-03-26 19:28:00,
2013-03-26 15:33:00,39.4,32.2,30.16,NW,314,18.0,18.0,75,0.00,,---,0.00,411.00,VWS V14.00,2013-03-26 19:33:00,
2013-03-26 15:38:00,39.4,31.5,30.16,NW,316,10.0,18.0,73,0.00,,---,0.00,383.00,VWS V14.00,2013-03-26 19:38:00,
2013-03-26 15:43:00,39.6,31.7,30.16,WNW,286,10.0,18.0,73,0.00,,---,0.00,301.00,VWS V14.00,2013-03-26 19:43:00,
2013-03-26 15:48:00,39.4,31.8,30.16,NW,317,13.0,14.0,74,0.00,,---,0.00,274.00,VWS V14.00,2013-03-26 19:48:00,
2013-03-26 15:53:00,39.3,32.0,30.16,NW,308,8.0,20.0,75,0.00,,---,0.00,257.00,VWS V14.00,2013-03-26 19:53:00,
2013-03-26 15:58:00,39.2,32.0,30.16,WNW,298,8.0,15.0,75,0.00,,---,0.00,265.00,VWS V14.00,2013-03-26 19:58:00,
2013-03-26 16:03:00,39.2,31.3,30.16,West,280,10.0,16.0,73,0.00,,---,0.00,264.00,VWS V14.00,2013-03-26 20:03:00,
2013-03-26 16:08:00,39.4,31.1,30.16,NW,326,6.0,14.0,72,0.00,,---,0.00,199.00,VWS V14.00,2013-03-26 20:08:00,
2013-03-26 16:13:00,39.4,30.8,30.16,NW,312,11.0,16.0,71,0.00,,---,0.00,142.00,VWS V14.00,2013-03-26 20:13:00,
2013-03-26 16:19:00,39.3,30.7,30.16,NNW,342,13.0,13.0,71,0.00,,---,0.00,114.00,VWS V14.00,2013-03-26 20:19:00,
2013-03-26 16:24:00,39.1,29.8,30.16,NW,312,10.0,18.0,69,0.00,,---,0.00,128.00,VWS V14.00,2013-03-26 20:24:00,
2013-03-26 16:29:00,38.9,30.3,30.16,NNW,337,6.0,18.0,71,0.00,,---,0.00,146.00,VWS V14.00,2013-03-26 20:29:00,
2013-03-26 16:34:00,38.9,30.7,30.16,NW,319,12.0,15.0,72,0.00,,---,0.00,125.00,VWS V14.00,2013-03-26 20:34:00,
2013-03-26 16:39:00,38.9,30.7,30.17,NW,317,8.0,16.0,72,0.00,,---,0.00,86.00,VWS V14.00,2013-03-26 20:39:00,
2013-03-26 16:44:00,38.8,29.9,30.17,NW,321,6.0,12.0,70,0.00,,---,0.00,65.00,VWS V14.00,2013-03-26 20:44:00,
2013-03-26 16:49:00,38.6,29.0,30.17,NNW,333,6.0,12.0,68,0.00,,---,0.00,86.00,VWS V14.00,2013-03-26 20:49:00,
2013-03-26 16:54:00,38.6,29.0,30.17,NW,317,7.0,15.0,68,0.00,,---,0.00,151.00,VWS V14.00,2013-03-26 20:54:00,
2013-03-26 16:59:00,38.7,29.8,30.17,NNW,338,5.0,13.0,70,0.00,,---,0.00,190.00,VWS V14.00,2013-03-26 20:59:00,
2013-03-26 17:04:00,38.8,30.2,30.17,NNW,342,5.0,8.0,71,0.00,,---,0.00,185.00,VWS V14.00,2013-03-26 21:04:00,
2013-03-26 17:09:00,39.0,30.8,30.17,NW,319,5.0,9.0,72,0.00,,---,0.00,160.00,VWS V14.00,2013-03-26 21:09:00,
2013-03-26 17:14:00,39.2,30.6,30.17,NNW,332,5.0,10.0,71,0.00,,---,0.00,77.00,VWS V14.00,2013-03-26 21:14:00,
2013-03-26 17:19:00,39.2,30.2,30.17,West,275,5.0,8.0,70,0.00,,---,0.00,32.00,VWS V14.00,2013-03-26 21:19:00,
2013-03-26 17:24:00,39.0,30.1,30.17,NNW,327,8.0,19.0,70,0.00,,---,0.00,21.00,VWS V14.00,2013-03-26 21:24:00,
2013-03-26 17:29:00,38.6,30.4,30.17,NNW,336,7.0,20.0,72,0.00,,---,0.00,25.00,VWS V14.00,2013-03-26 21:29:00,
2013-03-26 17:34:00,38.1,30.6,30.18,North,5,8.0,19.0,74,0.00,,---,0.00,26.00,VWS V14.00,2013-03-26 21:34:00,
2013-03-26 17:39:00,37.6,30.1,30.18,NW,309,9.0,16.0,74,0.00,,---,0.00,42.00,VWS V14.00,2013-03-26 21:39:00,
2013-03-26 17:44:00,37.4,30.2,30.18,NW,326,12.0,18.0,75,0.00,,---,0.00,54.00,VWS V14.00,2013-03-26 21:44:00,
2013-03-26 17:49:00,37.3,29.8,30.18,WNW,300,7.0,15.0,74,0.00,,---,0.00,86.00,VWS V14.00,2013-03-26 21:49:00,
2013-03-26 17:54:00,37.3,30.1,30.18,NW,304,8.0,13.0,75,0.00,,---,0.00,98.00,VWS V14.00,2013-03-26 21:54:00,
2013-03-26 17:59:00,37.4,30.2,30.18,NW,315,5.0,10.0,75,0.00,,---,0.00,95.00,VWS V14.00,2013-03-26 21:59:00,
2013-03-26 18:04:00,37.5,30.0,30.18,NW,323,5.0,12.0,74,0.00,,---,0.00,105.00,VWS V14.00,2013-03-26 22:04:00,
2013-03-26 18:09:00,37.6,30.1,30.18,West,281,9.0,12.0,74,0.00,,---,0.00,105.00,VWS V14.00,2013-03-26 22:09:00,
2013-03-26 18:14:00,37.7,29.8,30.19,NW,325,5.0,14.0,73,0.00,,---,0.00,104.00,VWS V14.00,2013-03-26 22:14:00,
2013-03-26 18:19:00,37.8,29.9,30.19,NW,313,10.0,12.0,73,0.00,,---,0.00,114.00,VWS V14.00,2013-03-26 22:19:00,
2013-03-26 18:24:00,37.7,30.2,30.19,NW,306,8.0,12.0,74,0.00,,---,0.00,118.00,VWS V14.00,2013-03-26 22:24:00,
2013-03-26 18:29:00,37.8,30.3,30.19,NW,323,9.0,19.0,74,0.00,,---,0.00,123.00,VWS V14.00,2013-03-26 22:29:00,
2013-03-26 18:34:00,37.7,30.5,30.19,NNW,337,6.0,13.0,75,0.00,,---,0.00,113.00,VWS V14.00,2013-03-26 22:34:00,
2013-03-26 18:39:00,37.7,30.2,30.19,NW,325,4.0,11.0,74,0.00,,---,0.00,105.00,VWS V14.00,2013-03-26 22:39:00,
2013-03-26 18:44:00,37.7,30.5,30.20,WNW,295,8.0,12.0,75,0.00,,---,0.00,91.00,VWS V14.00,2013-03-26 22:44:00,
2013-03-26 18:49:00,37.7,30.2,30.20,NW,310,8.0,16.0,74,0.00,,---,0.00,76.00,VWS V14.00,2013-03-26 22:49:00,
2013-03-26 18:54:00,37.6,30.1,30.20,NW,315,10.0,16.0,74,0.00,,---,0.00,65.00,VWS V14.00,2013-03-26 22:54:00,
2013-03-26 18:59:00,37.5,29.6,30.20,NNW,328,6.0,15.0,73,0.00,,---,0.00,58.00,VWS V14.00,2013-03-26 22:59:00,
2013-03-26 19:04:00,37.5,29.6,30.20,NW,320,7.0,13.0,73,0.00,,---,0.00,42.00,VWS V14.00,2013-03-26 23:04:00,
2013-03-26 19:09:00,37.5,29.6,30.21,NNW,340,7.0,13.0,73,0.00,,---,0.00,32.00,VWS V14.00,2013-03-26 23:09:00,
2013-03-26 19:14:00,37.4,29.5,30.21,NW,307,8.0,12.0,73,0.00,,---,0.00,26.00,VWS V14.00,2013-03-26 23:14:00,
2013-03-26 19:19:00,37.4,29.5,30.21,NW,320,2.0,12.0,73,0.00,,---,0.00,25.00,VWS V14.00,2013-03-26 23:19:00,
2013-03-26 19:24:00,37.3,29.8,30.21,NW,316,10.0,10.0,74,0.00,,---,0.00,25.00,VWS V14.00,2013-03-26 23:24:00,
2013-03-26 19:29:00,37.3,29.5,30.21,NW,313,8.0,10.0,73,0.00,,---,0.00,21.00,VWS V14.00,2013-03-26 23:29:00,
2013-03-26 19:34:00,37.2,29.4,30.21,NNW,327,9.0,14.0,73,0.00,,---,0.00,14.00,VWS V14.00,2013-03-26 23:34:00,
2013-03-26 19:39:00,37.1,29.3,30.21,NW,324,9.0,11.0,73,0.00,,---,0.00,11.00,VWS V14.00,2013-03-26 23:39:00,
2013-03-26 19:44:00,37.1,29.3,30.21,NW,320,6.0,15.0,73,0.00,,---,0.00,7.00,VWS V14.00,2013-03-26 23:44:00,
2013-03-26 19:49:00,37.1,29.3,30.22,NW,321,7.0,11.0,73,0.00,,---,0.00,0.00,VWS V14.00,2013-03-26 23:49:00,
2013-03-26 19:54:00,37.0,29.5,30.22,NW,316,11.0,11.0,74,0.00,,---,0.00,0.00,VWS V14.00,2013-03-26 23:54:00,
2013-03-26 19:59:00,37.1,29.3,30.22,NW,321,6.0,12.0,73,0.00,,---,0.00,0.00,VWS V14.00,2013-03-26 23:59:00,
2013-03-26 20:04:00,37.1,29.3,30.22,NW,313,4.0,14.0,73,0.00,,---,0.00,0.00,VWS V14.00,2013-03-27 00:04:00,
2013-03-26 20:09:00,37.1,29.3,30.22,NW,311,6.0,12.0,73,0.00,,---,0.00,0.00,VWS V14.00,2013-03-27 00:09:00,
2013-03-26 20:14:00,37.0,29.5,30.22,NW,323,8.0,10.0,74,0.00,,---,0.00,0.00,VWS V14.00,2013-03-27 00:14:00,
2013-03-26 20:19:00,37.0,29.5,30.22,NW,315,7.0,11.0,74,0.00,,---,0.00,0.00,VWS V14.00,2013-03-27 00:19:00,
2013-03-26 20:24:00,37.0,29.2,30.22,NW,312,6.0,16.0,73,0.00,,---,0.00,0.00,VWS V14.00,2013-03-27 00:24:00,
2013-03-26 20:29:00,37.0,28.8,30.22,NW,320,8.0,12.0,72,0.00,,---,0.00,0.00,VWS V14.00,2013-03-27 00:29:00,
2013-03-26 20:34:00,37.0,28.8,30.22,NW,320,9.0,11.0,72,0.00,,---,0.00,0.00,VWS V14.00,2013-03-27 00:34:00,
2013-03-26 20:39:00,37.0,28.8,30.23,NW,322,9.0,11.0,72,0.00,,---,0.00,0.00,VWS V14.00,2013-03-27 00:39:00,
2013-03-26 20:44:00,36.9,28.7,30.23,NW,318,8.0,9.0,72,0.00,,---,0.00,0.00,VWS V14.00,2013-03-27 00:44:00,
2013-03-26 20:49:00,36.9,28.7,30.23,NW,309,6.0,12.0,72,0.00,,---,0.00,0.00,VWS V14.00,2013-03-27 00:49:00,
2013-03-26 20:54:00,36.9,28.4,30.24,NW,319,2.0,11.0,71,0.00,,---,0.00,0.00,VWS V14.00,2013-03-27 00:54:00,
2013-03-26 20:59:00,36.9,28.4,30.23,NW,316,7.0,13.0,71,0.00,,---,0.00,0.00,VWS V14.00,2013-03-27 00:59:00,
2013-03-26 21:04:00,36.8,28.6,30.23,NW,322,5.0,11.0,72,0.00,,---,0.00,0.00,VWS V14.00,2013-03-27 01:04:00,
2013-03-26 21:09:00,36.8,28.6,30.24,NW,313,6.0,8.0,72,0.00,,---,0.00,0.00,VWS V14.00,2013-03-27 01:09:00,
2013-03-26 21:14:00,36.8,29.0,30.24,NW,311,5.0,10.0,73,0.00,,---,0.00,0.00,VWS V14.00,2013-03-27 01:14:00,
2013-03-26 21:19:00,36.7,28.9,30.24,NW,313,5.0,8.0,73,0.00,,---,0.00,0.00,VWS V14.00,2013-03-27 01:19:00,
2013-03-26 21:24:00,36.7,28.9,30.24,WNW,292,6.0,9.0,73,0.00,,---,0.00,0.00,VWS V14.00,2013-03-27 01:24:00,
2013-03-26 21:29:00,36.7,28.5,30.24,NW,311,8.0,11.0,72,0.00,,---,0.00,0.00,VWS V14.00,2013-03-27 01:29:00,
2013-03-26 21:34:00,36.7,28.5,30.24,NW,312,8.0,11.0,72,0.00,,---,0.00,0.00,VWS V14.00,2013-03-27 01:34:00,
2013-03-26 21:39:00,36.7,28.5,30.24,NW,319,7.0,12.0,72,0.00,,---,0.00,0.00,VWS V14.00,2013-03-27 01:39:00,
2013-03-26 21:44:00,36.7,28.5,30.25,NNW,333,6.0,11.0,72,0.00,,---,0.00,0.00,VWS V14.00,2013-03-27 01:44:00,
2013-03-26 21:49:00,36.6,28.4,30.24,NW,325,8.0,10.0,72,0.00,,---,0.00,0.00,VWS V14.00,2013-03-27 01:49:00,
2013-03-26 21:54:00,36.6,28.4,30.24,NW,323,6.0,9.0,72,0.00,,---,0.00,0.00,VWS V14.00,2013-03-27 01:54:00,
2013-03-26 21:59:00,36.5,28.4,30.25,NW,319,6.0,10.0,72,0.00,,---,0.00,0.00,VWS V14.00,2013-03-27 01:59:00,
2013-03-26 22:04:00,36.5,29.7,30.25,NW,305,6.0,11.0,76,0.00,,---,0.00,0.00,VWS V14.00,2013-03-27 02:04:00,
2013-03-26 22:09:00,36.4,28.2,30.25,NW,308,5.0,8.0,72,0.00,,---,0.00,0.00,VWS V14.00,2013-03-27 02:09:00,
2013-03-26 22:14:00,36.4,28.2,30.25,NW,312,5.0,14.0,72,0.00,,---,0.00,0.00,VWS V14.00,2013-03-27 02:14:00,
2013-03-26 22:19:00,36.4,28.2,30.26,NW,322,2.0,11.0,72,0.00,,---,0.00,0.00,VWS V14.00,2013-03-27 02:19:00,
2013-03-26 22:24:00,36.3,28.1,30.26,WNW,300,7.0,10.0,72,0.00,,---,0.00,0.00,VWS V14.00,2013-03-27 02:24:00,
2013-03-26 22:29:00,36.3,27.8,30.26,NW,309,13.0,16.0,71,0.00,,---,0.00,0.00,VWS V14.00,2013-03-27 02:29:00,
2013-03-26 22:34:00,36.4,27.9,30.26,NW,313,12.0,18.0,71,0.00,,---,0.00,0.00,VWS V14.00,2013-03-27 02:34:00,
2013-03-26 22:39:00,36.3,27.8,30.26,NNW,331,3.0,14.0,71,0.00,,---,0.00,0.00,VWS V14.00,2013-03-27 02:39:00,
2013-03-26 22:44:00,36.2,27.7,30.26,NW,305,10.0,13.0,71,0.00,,---,0.00,0.00,VWS V14.00,2013-03-27 02:44:00,
2013-03-26 22:49:00,36.1,27.6,30.26,NW,325,5.0,11.0,71,0.00,,---,0.00,0.00,VWS V14.00,2013-03-27 02:49:00,
2013-03-26 22:54:00,35.9,27.4,30.26,NW,313,7.0,12.0,71,0.00,,---,0.00,0.00,VWS V14.00,2013-03-27 02:54:00,
2013-03-26 22:59:00,35.9,27.4,30.27,NW,325,6.0,13.0,71,0.00,,---,0.00,0.00,VWS V14.00,2013-03-27 02:59:00,
2013-03-26 23:04:00,35.9,27.4,30.27,NNW,328,7.0,14.0,71,0.00,,---,0.00,0.00,VWS V14.00,2013-03-27 03:04:00,
2013-03-26 23:09:00,35.7,27.6,30.27,NW,310,5.0,11.0,72,0.00,,---,0.00,0.00,VWS V14.00,2013-03-27 03:09:00,
2013-03-26 23:14:00,35.6,27.5,30.27,NW,324,13.0,13.0,72,0.00,,---,0.00,0.00,VWS V14.00,2013-03-27 03:14:00,
2013-03-26 23:19:00,35.6,27.5,30.27,NW,323,10.0,11.0,72,0.00,,---,0.00,0.00,VWS V14.00,2013-03-27 03:19:00,
2013-03-26 23:24:00,35.4,27.3,30.27,NW,315,7.0,12.0,72,0.00,,---,0.00,0.00,VWS V14.00,2013-03-27 03:24:00,
2013-03-26 23:30:00,35.4,27.3,30.27,NW,319,7.0,12.0,72,0.00,,---,0.00,0.00,VWS V14.00,2013-03-27 03:30:00,
2013-03-26 23:35:00,35.3,27.5,30.27,NW,318,4.0,9.0,73,0.00,,---,0.00,0.00,VWS V14.00,2013-03-27 03:35:00,
2013-03-26 23:40:00,35.1,27.3,30.27,NW,312,6.0,9.0,73,0.00,,---,0.00,0.00,VWS V14.00,2013-03-27 03:40:00,
2013-03-26 23:45:00,35.0,27.6,30.27,NW,321,1.0,7.0,74,0.00,,---,0.00,0.00,VWS V14.00,2013-03-27 03:45:00,
2013-03-26 23:50:00,34.8,27.4,30.27,NW,316,4.0,6.0,74,0.00,,---,0.00,0.00,VWS V14.00,2013-03-27 03:50:00,
2013-03-26 23:55:00,34.6,27.5,30.27,NW,322,9.0,9.0,75,0.00,,---,0.00,0.00,VWS V14.00,2013-03-27 03:55:00,